Time;durP1;ratioP1;P1;durP2;ratioP2;P2;SDS_P1;SDS_P2;PMS_P1;PMS_P2;Temp;Humidity;BMP_temperature;BMP_pressure;BME280_temperature;BME280_humidity;BME280_pressure;Samples;Min_cycle;Max_cycle;Signal;HPM_P1;HPM_P2
2024/04/12 00:00:59;;;;;;;1.93;0.90;;;8.20;99.90;;;;;;5376595;26;20237;-67
2024/04/12 00:03:26;;;;;;;1.07;0.83;;;8.30;99.90;;;;;;5348057;26;20250;-67
2024/04/12 00:05:53;;;;;;;1.30;0.73;;;8.20;99.90;;;;;;5362457;26;20636;-67
2024/04/12 00:08:23;;;;;;;1.77;1.00;;;8.30;99.90;;;;;;5347587;26;20285;-67
2024/04/12 00:10:48;;;;;;;3.73;0.87;;;8.30;99.90;;;;;;5376542;26;20238;-67
2024/04/12 00:13:15;;;;;;;1.80;0.80;;;8.30;99.90;;;;;;5347559;26;20265;-67
2024/04/12 00:15:42;;;;;;;1.50;0.93;;;8.20;99.90;;;;;;5363349;26;20279;-66
2024/04/12 00:18:08;;;;;;;1.13;0.77;;;8.20;99.90;;;;;;5348931;26;20288;-67
2024/04/12 00:20:35;;;;;;;0.90;0.73;;;8.10;99.90;;;;;;5355441;26;20250;-66
2024/04/12 00:23:02;;;;;;;1.87;0.80;;;8.00;99.90;;;;;;5365975;26;20582;-66
2024/04/12 00:25:29;;;;;;;1.30;0.87;;;8.00;99.90;;;;;;5360307;26;20712;-67
2024/04/12 00:27:55;;;;;;;0.97;0.87;;;7.90;99.90;;;;;;5376945;26;20777;-67
2024/04/12 00:30:41;;;;;;;1.93;1.00;;;7.80;99.90;;;;;;5379720;26;20276;-67
2024/04/12 00:33:10;;;;;;;1.30;1.03;;;7.70;99.90;;;;;;5353089;26;20234;-67
2024/04/12 00:35:40;;;;;;;2.60;0.80;;;7.70;99.90;;;;;;5359496;26;20760;-67
2024/04/12 00:38:09;;;;;;;0.60;0.50;;;7.80;99.90;;;;;;5344882;26;20239;-67
2024/04/12 00:40:46;;;;;;;1.27;0.90;;;7.80;99.90;;;;;;5349714;26;20317;-67
2024/04/12 00:43:15;;;;;;;1.30;0.80;;;7.80;99.90;;;;;;5366188;26;20245;-66
2024/04/12 00:45:48;;;;;;;1.90;0.73;;;7.80;99.90;;;;;;5345072;26;20643;-66
2024/04/12 00:48:15;;;;;;;0.73;0.53;;;7.80;99.90;;;;;;5374001;26;20237;-68
2024/04/12 00:50:43;;;;;;;0.97;0.70;;;7.80;99.90;;;;;;5379441;26;20776;-67
2024/04/12 00:53:11;;;;;;;2.03;0.90;;;7.80;99.90;;;;;;5366694;26;20281;-67
2024/04/12 00:55:38;;;;;;;2.33;1.27;;;7.80;99.90;;;;;;5349932;26;20289;-67
2024/04/12 00:58:11;;;;;;;1.67;0.90;;;7.70;99.90;;;;;;5365585;26;20271;-67
2024/04/12 01:00:36;;;;;;;1.23;0.87;;;7.70;99.90;;;;;;5364494;26;20276;-67
2024/04/12 01:03:05;;;;;;;2.27;0.90;;;7.70;99.90;;;;;;5366419;26;20235;-67
2024/04/12 01:05:38;;;;;;;1.83;1.10;;;7.70;99.90;;;;;;5359051;26;20231;-67
2024/04/12 01:08:06;;;;;;;1.93;1.20;;;7.70;99.90;;;;;;5371091;26;20245;-67
2024/04/12 01:10:36;;;;;;;0.83;0.83;;;7.80;99.90;;;;;;5358196;26;20247;-67
2024/04/12 01:13:03;;;;;;;0.93;0.77;;;7.80;99.90;;;;;;5356232;26;20242;-67
2024/04/12 01:15:37;;;;;;;1.27;0.90;;;7.80;99.90;;;;;;5364931;26;20238;-67
2024/04/12 01:18:10;;;;;;;1.37;0.60;;;7.70;99.90;;;;;;5353085;26;20723;-67
2024/04/12 01:20:36;;;;;;;2.60;1.50;;;7.80;99.90;;;;;;5349288;26;20234;-66
2024/04/12 01:23:03;;;;;;;1.50;0.70;;;7.70;99.90;;;;;;5353882;26;20286;-66
2024/04/12 01:25:31;;;;;;;1.37;0.90;;;7.70;99.90;;;;;;5358604;26;21205;-66
2024/04/12 01:27:57;;;;;;;1.07;0.90;;;7.60;99.90;;;;;;5368861;26;20643;-67
2024/04/12 01:30:23;;;;;;;1.90;1.23;;;7.60;99.90;;;;;;5361914;26;20280;-66
2024/04/12 01:32:50;;;;;;;1.43;0.97;;;7.50;99.90;;;;;;5367080;26;20233;-67
2024/04/12 01:35:22;;;;;;;1.57;0.80;;;7.50;99.90;;;;;;5378854;26;20271;-67
2024/04/12 01:37:51;;;;;;;2.30;1.23;;;7.50;99.90;;;;;;5356629;26;20717;-67
2024/04/12 01:40:17;;;;;;;1.27;0.50;;;7.60;99.90;;;;;;5356320;26;20746;-67
2024/04/12 01:42:44;;;;;;;1.23;1.03;;;7.60;99.90;;;;;;5358264;26;20734;-67
2024/04/12 01:45:15;;;;;;;1.73;0.80;;;7.70;99.90;;;;;;5357012;26;20237;-66
2024/04/12 01:47:46;;;;;;;1.53;0.93;;;7.80;99.90;;;;;;5378497;26;20780;-66
2024/04/12 01:50:12;;;;;;;1.60;0.80;;;7.80;99.90;;;;;;5349762;26;20277;-66
2024/04/12 01:52:53;;;;;;;0.97;0.60;;;7.80;99.90;;;;;;5363575;26;20276;-67
2024/04/12 01:55:20;;;;;;;1.20;0.60;;;7.80;99.90;;;;;;5364043;26;20242;-67
2024/04/12 01:57:51;;;;;;;0.93;0.70;;;7.80;99.90;;;;;;5356592;26;20711;-67
2024/04/12 02:00:20;;;;;;;1.10;0.70;;;7.80;99.90;;;;;;5357354;26;20333;-67
2024/04/12 02:02:52;;;;;;;2.27;1.00;;;7.70;99.90;;;;;;5343787;26;20591;-67
2024/04/12 02:05:29;;;;;;;0.80;0.60;;;7.70;99.90;;;;;;5358323;26;20269;-67
2024/04/12 02:07:55;;;;;;;0.80;0.60;;;7.70;99.90;;;;;;5366589;26;20365;-67
2024/04/12 02:10:22;;;;;;;2.03;0.80;;;7.70;99.90;;;;;;5342651;26;20858;-66
2024/04/12 02:12:53;;;;;;;1.17;0.90;;;7.80;99.90;;;;;;5351460;26;20234;-67
2024/04/12 02:15:28;;;;;;;1.03;0.70;;;7.80;99.90;;;;;;5362754;26;20631;-67
2024/04/12 02:17:57;;;;;;;0.97;0.63;;;7.80;99.90;;;;;;5343216;26;20289;-67
2024/04/12 02:20:36;;;;;;;2.03;0.70;;;7.70;99.90;;;;;;5373208;26;20726;-66
2024/04/12 02:23:06;;;;;;;0.50;0.50;;;7.70;99.90;;;;;;5378525;26;20775;-66
2024/04/12 02:25:39;;;;;;;1.63;0.80;;;7.70;99.90;;;;;;5344769;26;20232;-67
2024/04/12 02:28:09;;;;;;;0.50;0.50;;;7.80;99.90;;;;;;5355107;26;20241;-66
2024/04/12 02:30:44;;;;;;;2.00;1.10;;;7.80;99.90;;;;;;5357652;26;20238;-67
2024/04/12 02:33:17;;;;;;;0.63;0.50;;;7.70;99.90;;;;;;5357606;26;20814;-67
2024/04/12 02:35:46;;;;;;;1.40;0.73;;;7.70;99.90;;;;;;5355399;26;20242;-66
2024/04/12 02:38:20;;;;;;;1.13;0.77;;;7.70;99.90;;;;;;5357211;26;20247;-67
2024/04/12 02:40:46;;;;;;;0.57;0.50;;;7.70;99.90;;;;;;5341170;26;20234;-67
2024/04/12 02:43:15;;;;;;;1.07;0.70;;;7.70;99.90;;;;;;5371337;26;20234;-67
2024/04/12 02:45:47;;;;;;;2.43;1.30;;;7.60;99.90;;;;;;5357594;26;20336;-66
2024/04/12 02:48:13;;;;;;;8.50;0.57;;;7.60;99.90;;;;;;5357073;26;20680;-66
2024/04/12 02:50:39;;;;;;;1.73;0.40;;;7.50;99.90;;;;;;5362238;26;20241;-66
2024/04/12 02:53:05;;;;;;;1.37;0.70;;;7.40;99.90;;;;;;5363014;26;20725;-67
2024/04/12 02:55:30;;;;;;;0.77;0.57;;;7.30;99.90;;;;;;5357367;26;20241;-66
2024/04/12 02:57:57;;;;;;;0.60;0.57;;;7.20;99.90;;;;;;5365245;26;20241;-66
2024/04/12 03:00:23;;;;;;;1.07;0.90;;;7.10;99.90;;;;;;5360710;26;20293;-67
2024/04/12 03:02:53;;;;;;;0.43;0.43;;;6.90;99.90;;;;;;5365235;26;20241;-66
2024/04/12 03:05:20;;;;;;;0.87;0.77;;;6.80;99.90;;;;;;5362089;26;20273;-67
2024/04/12 03:07:45;;;;;;;1.13;0.70;;;6.80;99.90;;;;;;5349736;26;20226;-67
2024/04/12 03:10:15;;;;;;;0.80;0.67;;;6.70;99.90;;;;;;5362360;26;20679;-66
2024/04/12 03:12:43;;;;;;;1.27;0.70;;;6.60;99.90;;;;;;5377370;26;20303;-66
2024/04/12 03:15:10;;;;;;;0.93;0.60;;;6.60;99.90;;;;;;5364839;26;20615;-66
2024/04/12 03:17:36;;;;;;;0.87;0.73;;;6.60;99.90;;;;;;5361339;26;20234;-66
2024/04/12 03:20:03;;;;;;;1.33;0.90;;;6.50;99.90;;;;;;5377209;26;20230;-67
2024/04/12 03:22:30;;;;;;;1.30;0.50;;;6.50;99.90;;;;;;5359403;26;20590;-66
2024/04/12 03:24:56;;;;;;;2.20;1.07;;;6.50;99.90;;;;;;5355186;26;20239;-67
2024/04/12 03:27:22;;;;;;;1.13;0.80;;;6.50;99.90;;;;;;5373100;26;20230;-66
2024/04/12 03:29:49;;;;;;;2.93;1.27;;;6.50;99.90;;;;;;5376830;26;20230;-66
2024/04/12 03:32:15;;;;;;;0.93;0.80;;;6.50;99.90;;;;;;5363044;26;20756;-66
2024/04/12 03:34:40;;;;;;;0.93;0.70;;;6.50;99.90;;;;;;5361258;26;20234;-66
2024/04/12 03:37:23;;;;;;;0.63;0.50;;;6.60;99.90;;;;;;5350797;26;20231;-66
2024/04/12 03:39:59;;;;;;;0.70;0.40;;;6.60;99.90;;;;;;5342015;26;20242;-66
2024/04/12 03:42:28;;;;;;;0.53;0.50;;;6.50;99.90;;;;;;5371508;26;20276;-66
2024/04/12 03:44:57;;;;;;;1.20;0.50;;;6.40;99.90;;;;;;5366462;26;20249;-66
2024/04/12 03:47:25;;;;;;;3.50;1.10;;;6.30;99.90;;;;;;5363224;26;20234;-66
2024/04/12 03:49:52;;;;;;;0.80;0.60;;;6.30;99.90;;;;;;5353942;26;20332;-67
2024/04/12 03:52:20;;;;;;;0.80;0.70;;;6.30;99.90;;;;;;5356804;26;20234;-67
2024/04/12 03:54:46;;;;;;;1.00;0.70;;;6.20;99.90;;;;;;5377085;26;20338;-67
2024/04/12 03:57:13;;;;;;;2.20;0.60;;;6.20;99.90;;;;;;5376764;26;20350;-67
2024/04/12 03:59:43;;;;;;;1.17;1.03;;;6.10;99.90;;;;;;5347334;26;20234;-66
2024/04/12 04:02:08;;;;;;;0.93;0.70;;;6.10;99.90;;;;;;5376919;26;20776;-66
2024/04/12 04:04:44;;;;;;;2.23;0.80;;;6.10;99.90;;;;;;5346885;26;20246;-66
2024/04/12 04:07:14;;;;;;;0.70;0.60;;;6.10;99.90;;;;;;5349743;26;20230;-66
2024/04/12 04:09:42;;;;;;;0.73;0.53;;;6.00;99.90;;;;;;5361305;26;20719;-66
2024/04/12 04:12:10;;;;;;;0.50;0.40;;;5.90;99.90;;;;;;5364723;26;20277;-66
2024/04/12 04:14:36;;;;;;;4.27;1.10;;;5.90;99.90;;;;;;5346966;26;20648;-66
2024/04/12 04:17:05;;;;;;;0.93;0.70;;;5.90;99.90;;;;;;5361111;26;20788;-66
2024/04/12 04:19:33;;;;;;;0.70;0.60;;;5.90;99.90;;;;;;5376334;26;20283;-66
2024/04/12 04:22:22;;;;;;;1.90;0.80;;;5.80;99.90;;;;;;5366728;26;20282;-66
2024/04/12 04:24:48;;;;;;;1.00;0.70;;;5.70;99.90;;;;;;5364267;26;20728;-66
2024/04/12 04:27:15;;;;;;;0.93;0.70;;;5.70;99.90;;;;;;5377137;26;20280;-66
2024/04/12 04:29:43;;;;;;;0.97;0.70;;;5.70;99.90;;;;;;5361567;26;20264;-66
2024/04/12 04:32:10;;;;;;;0.87;0.70;;;5.70;99.90;;;;;;5377223;26;20238;-66
2024/04/12 04:34:35;;;;;;;1.30;0.73;;;5.80;99.90;;;;;;5362204;26;20233;-66
2024/04/12 04:37:05;;;;;;;0.60;0.60;;;5.70;99.90;;;;;;5376891;26;20760;-66
2024/04/12 04:39:32;;;;;;;1.20;0.80;;;5.70;99.90;;;;;;5342050;26;20692;-66
2024/04/12 04:41:58;;;;;;;1.13;0.53;;;5.70;99.90;;;;;;5366725;26;20238;-66
2024/04/12 04:44:24;;;;;;;0.40;0.40;;;5.70;99.90;;;;;;5346333;26;20332;-66
2024/04/12 04:46:52;;;;;;;0.37;0.37;;;5.70;99.90;;;;;;5341763;26;20242;-66
2024/04/12 04:49:19;;;;;;;1.00;0.90;;;5.70;99.90;;;;;;5341211;26;20239;-67
2024/04/12 04:51:47;;;;;;;1.97;0.80;;;5.70;99.90;;;;;;5361730;26;20229;-66
2024/04/12 04:54:14;;;;;;;0.67;0.67;;;5.70;99.90;;;;;;5346930;26;20238;-66
2024/04/12 04:56:49;;;;;;;0.90;0.67;;;5.70;99.90;;;;;;5360163;26;20238;-67
2024/04/12 04:59:16;;;;;;;0.60;0.60;;;5.70;99.90;;;;;;5360624;26;20865;-67
2024/04/12 05:01:52;;;;;;;0.63;0.60;;;5.70;99.90;;;;;;5340735;26;20805;-67
2024/04/12 05:04:21;;;;;;;1.43;0.60;;;5.70;99.90;;;;;;5354909;26;20233;-66
2024/04/12 05:06:50;;;;;;;2.23;0.80;;;5.70;99.90;;;;;;5361815;26;20229;-67
2024/04/12 05:09:18;;;;;;;1.13;0.70;;;5.70;99.90;;;;;;5360722;26;20237;-66
2024/04/12 05:11:50;;;;;;;0.53;0.53;;;5.80;99.90;;;;;;5354440;26;20706;-67
2024/04/12 05:17:09;;;;;;;0.40;0.30;;;5.90;99.90;;;;;;5369074;26;20293;-66
2024/04/12 05:19:40;;;;;;;0.60;0.60;;;6.00;99.90;;;;;;5361753;26;20273;-66
2024/04/12 05:22:07;;;;;;;1.53;0.47;;;6.10;99.90;;;;;;5378699;26;20285;-66
2024/04/12 05:24:35;;;;;;;0.50;0.47;;;6.10;99.90;;;;;;5375037;26;20289;-66
2024/04/12 05:27:05;;;;;;;0.70;0.43;;;6.10;99.90;;;;;;5358628;26;20282;-66
2024/04/12 05:29:31;;;;;;;0.70;0.60;;;6.20;99.90;;;;;;5346547;26;20251;-67
2024/04/12 05:31:57;;;;;;;1.37;0.80;;;6.30;99.90;;;;;;5369060;26;20235;-67
2024/04/12 05:34:26;;;;;;;1.10;0.90;;;6.40;99.90;;;;;;5359035;26;20231;-66
2024/04/12 05:36:59;;;;;;;1.17;1.07;;;6.50;99.90;;;;;;5363433;26;20234;-66
2024/04/12 05:39:25;;;;;;;2.73;1.00;;;6.70;99.90;;;;;;5346415;26;21117;-66
2024/04/12 05:41:53;;;;;;;1.13;0.83;;;6.80;99.90;;;;;;5358395;26;20234;-66
2024/04/12 05:44:22;;;;;;;3.20;1.70;;;7.00;99.90;;;;;;5370841;26;20277;-66
2024/04/12 05:46:47;;;;;;;1.30;0.93;;;7.10;99.90;;;;;;5343676;26;20245;-67
2024/04/12 05:49:14;;;;;;;1.57;1.20;;;7.30;99.90;;;;;;5384111;26;20338;-66
2024/04/12 05:51:41;;;;;;;3.07;1.23;;;7.40;99.90;;;;;;5357088;26;20588;-67
2024/04/12 05:54:10;;;;;;;1.17;0.80;;;7.50;99.90;;;;;;5357895;26;20297;-66
2024/04/12 05:56:46;;;;;;;1.77;0.77;;;7.70;99.90;;;;;;5357504;26;20229;-66
2024/04/12 05:59:16;;;;;;;1.43;1.13;;;7.90;99.90;;;;;;5354201;26;20263;-67
2024/04/12 06:01:43;;;;;;;1.23;0.90;;;8.00;99.90;;;;;;5362850;26;20275;-66
2024/04/12 06:04:14;;;;;;;1.67;1.10;;;8.00;99.90;;;;;;5276428;26;21056;-66
2024/04/12 06:06:42;;;;;;;1.80;1.00;;;8.20;99.90;;;;;;5250286;27;20266;-67
2024/04/12 06:09:21;;;;;;;1.00;0.90;;;8.40;99.90;;;;;;5238824;27;20236;-66
2024/04/12 06:11:47;;;;;;;4.37;0.87;;;8.40;99.90;;;;;;5245403;27;20737;-67
2024/04/12 06:14:13;;;;;;;0.80;0.70;;;8.50;99.90;;;;;;5245645;27;20738;-67
2024/04/12 06:16:39;;;;;;;3.47;1.67;;;8.60;99.90;;;;;;5253105;27;20246;-67
2024/04/12 06:19:05;;;;;;;2.30;0.93;;;8.60;99.90;;;;;;5244151;27;20718;-66
2024/04/12 06:21:32;;;;;;;0.73;0.60;;;8.70;99.90;;;;;;5225552;27;20284;-66
2024/04/12 06:23:57;;;;;;;1.40;1.00;;;8.80;99.90;;;;;;5226694;27;20311;-67
2024/04/12 06:26:23;;;;;;;1.80;0.90;;;8.90;99.90;;;;;;5224861;27;20344;-66
2024/04/12 06:28:49;;;;;;;1.07;0.73;;;9.10;99.90;;;;;;5240133;27;20409;-67
2024/04/12 06:31:23;;;;;;;1.67;1.20;;;9.20;99.90;;;;;;5239714;27;20241;-66
2024/04/12 06:33:50;;;;;;;2.00;0.80;;;9.20;99.90;;;;;;5228068;27;20328;-67
2024/04/12 06:36:16;;;;;;;2.40;1.17;;;9.30;99.90;;;;;;5240183;27;20242;-67
2024/04/12 06:38:42;;;;;;;2.27;0.90;;;9.30;99.90;;;;;;5266211;27;20246;-67
2024/04/12 06:41:10;;;;;;;1.47;1.17;;;9.40;99.90;;;;;;5239685;27;20336;-67
2024/04/12 06:43:37;;;;;;;1.33;0.90;;;9.50;99.90;;;;;;5240163;27;20628;-67
2024/04/12 06:46:08;;;;;;;4.10;1.67;;;9.60;99.90;;;;;;5230010;27;20754;-67
2024/04/12 06:48:41;;;;;;;1.77;1.10;;;9.70;99.90;;;;;;5237295;27;20664;-67
2024/04/12 06:51:11;;;;;;;1.60;0.90;;;9.80;99.90;;;;;;5239168;27;20573;-67
2024/04/12 06:53:48;;;;;;;5.37;1.83;;;9.80;99.90;;;;;;5239845;27;20308;-67
2024/04/12 06:56:15;;;;;;;1.23;0.80;;;10.00;99.90;;;;;;5238810;27;20296;-67
2024/04/12 06:58:43;;;;;;;1.90;1.03;;;10.10;99.90;;;;;;5239915;27;20238;-67
2024/04/12 07:01:10;;;;;;;5.03;1.27;;;10.20;99.90;;;;;;5239533;27;20328;-67
2024/04/12 07:03:36;;;;;;;2.10;0.90;;;10.30;99.90;;;;;;5239996;27;20396;-67
2024/04/12 07:06:03;;;;;;;3.13;1.87;;;10.40;99.90;;;;;;5240056;27;20238;-67
2024/04/12 07:08:29;;;;;;;1.33;0.83;;;10.40;99.90;;;;;;5239247;27;20282;-67
2024/04/12 07:10:56;;;;;;;0.60;0.60;;;10.50;99.90;;;;;;5239357;27;20233;-67
2024/04/12 07:13:27;;;;;;;1.13;0.93;;;10.50;99.90;;;;;;5225662;27;20747;-67
2024/04/12 07:15:55;;;;;;;1.83;0.87;;;10.60;99.90;;;;;;5239974;27;20237;-67
2024/04/12 07:18:26;;;;;;;2.80;1.50;;;10.90;99.90;;;;;;5226264;27;20241;-66
2024/04/12 07:20:57;;;;;;;1.37;0.93;;;11.10;99.90;;;;;;5239234;27;20273;-67
2024/04/12 07:23:22;;;;;;;2.23;1.07;;;11.20;99.90;;;;;;5238270;27;20389;-67
2024/04/12 07:25:48;;;;;;;4.70;1.43;;;11.30;99.90;;;;;;5232835;27;20280;-67
2024/04/12 07:28:14;;;;;;;3.17;1.33;;;11.40;99.90;;;;;;5230621;27;20238;-67
2024/04/12 07:30:46;;;;;;;1.70;1.00;;;11.50;99.90;;;;;;5238488;27;20370;-67
2024/04/12 07:33:13;;;;;;;1.33;0.90;;;11.50;99.90;;;;;;5239579;27;20460;-67
2024/04/12 07:35:39;;;;;;;1.77;1.30;;;11.60;99.90;;;;;;5239211;27;20241;-67
2024/04/12 07:38:07;;;;;;;3.40;1.40;;;11.60;99.90;;;;;;5227594;27;20247;-67
2024/04/12 07:40:34;;;;;;;3.53;1.40;;;11.60;99.90;;;;;;5259623;27;20253;-67
2024/04/12 07:43:08;;;;;;;2.33;1.37;;;11.80;99.90;;;;;;5229581;27;20332;-67
2024/04/12 07:45:38;;;;;;;2.97;1.30;;;11.90;99.90;;;;;;5235803;27;20750;-67
2024/04/12 07:50:47;;;;;;;10.90;3.93;;;12.10;99.90;;;;;;5237493;27;20273;-67
2024/04/12 07:53:21;;;;;;;3.57;1.50;;;12.20;99.90;;;;;;5225871;27;20230;-67
2024/04/12 07:56:14;;;;;;;1.70;1.37;;;12.30;99.90;;;;;;5225910;27;20692;-68
2024/04/12 07:58:42;;;;;;;19.43;1.97;;;12.40;99.90;;;;;;5238798;27;20245;-68
2024/04/12 08:01:15;;;;;;;2.53;1.70;;;12.60;99.90;;;;;;5238683;27;20237;-67
2024/04/12 08:03:42;;;;;;;1.47;0.90;;;12.50;99.90;;;;;;5238547;27;20229;-67
2024/04/12 08:06:36;;;;;;;2.23;1.27;;;12.60;99.90;;;;;;5236878;27;20245;-67
2024/04/12 08:09:05;;;;;;;3.17;1.60;;;12.70;99.90;;;;;;5228449;27;20245;-67
2024/04/12 08:11:34;;;;;;;1.47;1.07;;;12.80;99.90;;;;;;5237712;27;20749;-67
2024/04/12 08:14:08;;;;;;;2.17;1.30;;;12.80;99.90;;;;;;5238374;27;20558;-67
2024/04/12 08:16:35;;;;;;;3.00;1.57;;;12.80;99.90;;;;;;5237768;27;20604;-67
2024/04/12 08:19:12;;;;;;;2.40;1.10;;;12.90;99.90;;;;;;5224860;27;20245;-67
2024/04/12 08:21:39;;;;;;;1.90;1.13;;;13.10;99.90;;;;;;5238347;27;20288;-67
2024/04/12 08:24:09;;;;;;;2.33;1.30;;;13.10;99.90;;;;;;5239438;27;20253;-67
2024/04/12 08:26:45;;;;;;;6.40;1.90;;;13.30;99.90;;;;;;5225387;27;20306;-67
2024/04/12 08:29:23;;;;;;;2.13;1.40;;;13.40;99.90;;;;;;5225197;27;20288;-67
2024/04/12 08:32:11;;;;;;;2.03;1.10;;;13.50;99.90;;;;;;5239341;27;20355;-67
2024/04/12 08:34:44;;;;;;;8.70;1.40;;;13.60;99.90;;;;;;5221332;27;20251;-67
2024/04/12 08:37:13;;;;;;;3.60;1.53;;;13.80;99.90;;;;;;5231168;27;20238;-68
2024/04/12 08:39:46;;;;;;;5.33;1.50;;;14.00;99.90;;;;;;5238326;27;20241;-67
2024/04/12 08:42:14;;;;;;;2.73;1.53;;;14.10;99.90;;;;;;5239388;27;20340;-67
2024/04/12 08:44:40;;;;;;;4.80;1.43;;;14.30;99.90;;;;;;5238993;27;20351;-67
2024/04/12 08:47:29;;;;;;;6.47;1.37;;;14.50;99.90;;;;;;5239345;27;20644;-67
2024/04/12 08:50:06;;;;;;;4.20;1.17;;;14.50;99.90;;;;;;5220859;27;20239;-68
2024/04/12 08:52:48;;;;;;;4.07;1.50;;;14.70;99.90;;;;;;5211809;27;20689;-67
2024/04/12 08:55:15;;;;;;;4.00;1.30;;;14.80;99.90;;;;;;5242407;27;20241;-68
2024/04/12 08:57:41;;;;;;;2.60;1.37;;;14.80;99.90;;;;;;5241898;27;20294;-68
2024/04/12 09:00:21;;;;;;;4.57;1.13;;;14.90;99.90;;;;;;5241613;27;20234;-67
2024/04/12 09:03:02;;;;;;;3.00;1.07;;;14.90;99.90;;;;;;5242500;27;20343;-67
2024/04/12 09:05:32;;;;;;;1.57;0.73;;;14.90;99.90;;;;;;5186335;27;20250;-67
2024/04/12 09:07:58;;;;;;;0.73;0.60;;;14.80;99.90;;;;;;5241949;27;20242;-67
2024/04/12 09:10:34;;;;;;;1.10;0.53;;;14.90;99.90;;;;;;5241103;27;20281;-67
2024/04/12 09:13:15;;;;;;;0.60;0.50;;;14.80;99.90;;;;;;5228244;27;20603;-67
2024/04/12 09:15:45;;;;;;;1.27;0.50;;;14.80;99.90;;;;;;5241869;27;20331;-67
2024/04/12 09:18:16;;;;;;;1.40;0.57;;;14.80;99.90;;;;;;5241615;27;20241;-67
2024/04/12 09:20:44;;;;;;;1.10;0.37;;;14.70;99.90;;;;;;5241522;27;20597;-67
2024/04/12 09:23:14;;;;;;;0.40;0.40;;;14.70;99.90;;;;;;5241657;27;20245;-67
2024/04/12 09:25:56;;;;;;;1.10;0.47;;;14.70;99.90;;;;;;5241597;27;20250;-67
2024/04/12 09:28:26;;;;;;;0.40;0.40;;;14.70;99.90;;;;;;5241109;27;20312;-67
2024/04/12 09:33:39;;;;;;;0.60;0.43;;;14.70;99.90;;;;;;5241037;27;20348;-67
2024/04/12 09:36:06;;;;;;;1.27;0.87;;;14.60;99.90;;;;;;5241041;27;20237;-66
2024/04/12 09:38:39;;;;;;;0.67;0.60;;;14.60;99.90;;;;;;5240873;27;20237;-66
2024/04/12 09:41:27;;;;;;;0.87;0.67;;;14.70;99.90;;;;;;5241268;27;20238;-66
2024/04/12 09:43:59;;;;;;;0.30;0.30;;;14.80;99.90;;;;;;5228898;27;20293;-67
2024/04/12 09:46:36;;;;;;;1.07;0.50;;;15.10;99.90;;;;;;5227358;27;20823;-68
2024/04/12 10:37:23;;;;;;;0.90;0.40;;;15.70;99.90;;;;;;5241414;27;20268;-68
2024/04/12 10:38:42;;;;;;;0.83;0.60;;;17.60;99.90;;;;;;5225322;27;20280;-68
2024/04/12 10:41:07;;;;;;;0.53;0.20;;;17.60;99.90;;;;;;5266156;27;20249;-68
2024/04/12 10:43:41;;;;;;;0.30;0.20;;;17.60;99.90;;;;;;5240209;27;20238;-67
2024/04/12 10:46:10;;;;;;;0.93;0.20;;;17.60;99.90;;;;;;5240444;27;20348;-67
2024/04/12 10:48:37;;;;;;;0.40;0.40;;;17.60;99.90;;;;;;5246353;27;20731;-68
2024/04/12 10:51:08;;;;;;;0.63;0.33;;;17.60;99.90;;;;;;5213104;27;20276;-68
2024/04/12 10:53:37;;;;;;;1.47;0.40;;;17.40;99.90;;;;;;5238981;27;20827;-68
2024/04/12 10:56:03;;;;;;;0.73;0.30;;;17.50;99.90;;;;;;5239407;27;20238;-68
2024/04/12 10:58:33;;;;;;;0.73;0.40;;;17.50;99.90;;;;;;5238787;27;20426;-68
2024/04/12 11:01:05;;;;;;;0.47;0.30;;;17.40;99.90;;;;;;5238948;27;20280;-69
2024/04/12 11:03:38;;;;;;;0.73;0.27;;;17.40;99.90;;;;;;5237662;27;20285;-68
2024/04/12 11:06:18;;;;;;;1.53;0.60;;;17.50;99.90;;;;;;5230614;27;20234;-68
2024/04/12 11:08:45;;;;;;;0.77;0.30;;;17.60;99.90;;;;;;5240339;27;20356;-69
2024/04/12 11:11:19;;;;;;;4.23;0.40;;;17.80;99.90;;;;;;5226047;27;20609;-68
2024/04/12 11:13:47;;;;;;;0.40;0.30;;;17.60;99.90;;;;;;5266337;27;20253;-68
2024/04/12 11:32:42;;;;;;;1.70;0.80;;;18.30;99.90;;;;;;5237825;27;20886;-68
2024/04/12 11:35:11;;;;;;;2.33;0.37;;;18.70;99.90;;;;;;5226459;27;20344;-67
2024/04/12 11:37:40;;;;;;;0.47;0.30;;;19.00;99.90;;;;;;5265754;27;20242;-68
2024/04/12 11:40:16;;;;;;;0.63;0.43;;;19.20;99.90;;;;;;5239233;27;20249;-68
2024/04/12 11:42:45;;;;;;;1.00;0.60;;;19.30;99.90;;;;;;5238660;27;20237;-67
2024/04/12 11:45:14;;;;;;;1.97;0.50;;;19.20;99.90;;;;;;5239031;27;20238;-68
2024/04/12 11:47:40;;;;;;;1.17;0.30;;;19.10;99.90;;;;;;5239484;27;20234;-67
2024/04/12 11:50:10;;;;;;;0.90;0.40;;;19.00;99.90;;;;;;5239114;27;20292;-68
2024/04/12 11:52:42;;;;;;;1.23;0.57;;;19.10;99.90;;;;;;5234624;27;20301;-68
2024/04/12 11:55:07;;;;;;;0.50;0.30;;;19.00;99.90;;;;;;5216665;27;20242;-67
2024/04/12 11:57:37;;;;;;;0.50;0.30;;;19.00;99.90;;;;;;5238899;27;20280;-68
2024/04/12 12:00:09;;;;;;;0.20;0.20;;;19.00;99.90;;;;;;5237268;27;20856;-68
2024/04/12 12:02:42;;;;;;;0.50;0.33;;;19.10;99.90;;;;;;5236611;27;20376;-68
2024/04/12 12:05:16;;;;;;;0.37;0.30;;;19.10;99.90;;;;;;5230999;27;20237;-68
2024/04/12 12:07:44;;;;;;;0.53;0.40;;;19.20;99.90;;;;;;5238774;27;20734;-68
2024/04/12 12:10:11;;;;;;;0.40;0.30;;;19.40;99.90;;;;;;5225331;27;20237;-68
2024/04/12 12:12:37;;;;;;;1.33;0.70;;;19.40;99.90;;;;;;5239027;27;20245;-68
2024/04/12 12:15:06;;;;;;;0.20;0.20;;;19.40;99.90;;;;;;5225756;27;20606;-67
2024/04/12 12:17:32;;;;;;;0.43;0.30;;;19.40;99.90;;;;;;5238725;27;20667;-66
2024/04/12 12:19:58;;;;;;;0.30;0.20;;;19.40;99.90;;;;;;5238852;27;20667;-68
2024/04/12 12:22:23;;;;;;;0.43;0.23;;;19.10;99.90;;;;;;5237338;27;20313;-66
2024/04/12 12:24:49;;;;;;;0.37;0.27;;;19.10;99.90;;;;;;5238946;27;20237;-66
2024/04/12 12:27:23;;;;;;;0.40;0.20;;;19.10;99.90;;;;;;5228961;27;20280;-69
2024/04/12 12:29:51;;;;;;;0.30;0.20;;;19.10;99.90;;;;;;5241674;27;20328;-68
2024/04/12 12:32:19;;;;;;;0.50;0.30;;;19.00;99.90;;;;;;5242484;27;20271;-66
2024/04/12 12:34:46;;;;;;;2.30;0.50;;;19.00;99.90;;;;;;5242047;27;20237;-69
2024/04/12 12:37:15;;;;;;;1.37;0.50;;;18.90;99.90;;;;;;5241996;27;20238;-66
2024/04/12 12:39:41;;;;;;;0.40;0.40;;;18.70;99.90;;;;;;5241365;27;20245;-68
2024/04/12 12:42:09;;;;;;;0.40;0.30;;;18.60;99.90;;;;;;5240837;27;20242;-68
2024/04/12 12:44:38;;;;;;;1.33;0.30;;;18.40;99.90;;;;;;5241897;27;20279;-67
2024/04/12 12:47:05;;;;;;;0.30;0.30;;;18.20;99.90;;;;;;5268888;27;20257;-65
2024/04/12 12:49:46;;;;;;;0.53;0.20;;;18.10;99.90;;;;;;5241060;27;20253;-66
2024/04/12 12:52:13;;;;;;;0.60;0.40;;;18.10;99.90;;;;;;5230829;27;20238;-66
2024/04/12 12:54:41;;;;;;;0.90;0.30;;;18.00;99.90;;;;;;5239397;27;20283;-66
2024/04/12 12:57:08;;;;;;;1.23;0.33;;;18.20;99.90;;;;;;5242034;27;20241;-66
2024/04/12 12:59:40;;;;;;;0.20;0.20;;;18.40;99.90;;;;;;5240933;27;20237;-66
2024/04/12 13:02:07;;;;;;;0.83;0.40;;;18.50;99.90;;;;;;5241932;27;20284;-66
2024/04/12 13:04:34;;;;;;;0.47;0.20;;;18.70;99.90;;;;;;5241752;27;21115;-67
2024/04/12 13:07:06;;;;;;;0.20;0.20;;;18.90;99.90;;;;;;5241763;27;20238;-67
2024/04/12 13:09:35;;;;;;;0.27;0.27;;;19.20;99.90;;;;;;5241106;27;20238;-66
2024/04/12 13:12:11;;;;;;;0.40;0.20;;;19.40;99.90;;;;;;5242120;27;20348;-65
2024/04/12 13:14:37;;;;;;;1.23;0.60;;;19.50;99.90;;;;;;5241337;27;20238;-65
2024/04/12 13:17:12;;;;;;;0.40;0.20;;;19.40;99.90;;;;;;5231476;27;20243;-65
2024/04/12 13:19:41;;;;;;;0.20;0.20;;;19.40;99.90;;;;;;5265031;27;20296;-65
2024/04/12 13:22:11;;;;;;;0.20;0.20;;;19.40;99.90;;;;;;5241111;27;20607;-67
2024/04/12 13:24:37;;;;;;;0.40;0.30;;;19.40;99.90;;;;;;5262573;27;20277;-65
2024/04/12 13:27:07;;;;;;;0.30;0.20;;;19.20;99.90;;;;;;5230508;27;20272;-66
2024/04/12 13:29:33;;;;;;;0.73;0.30;;;19.10;99.90;;;;;;5240487;27;20246;-68
2024/04/12 13:32:00;;;;;;;0.70;0.50;;;19.00;99.90;;;;;;5241277;27;20328;-68
2024/04/12 13:34:25;;;;;;;0.60;0.40;;;19.00;99.90;;;;;;5227429;27;20341;-68
2024/04/12 13:36:53;;;;;;;0.30;0.30;;;18.90;99.90;;;;;;5240086;27;20245;-68
2024/04/12 13:39:21;;;;;;;0.53;0.40;;;18.90;99.90;;;;;;5240134;27;20245;-68
2024/04/12 13:41:47;;;;;;;0.40;0.20;;;18.90;99.90;;;;;;5235802;27;20239;-68
2024/04/12 13:44:25;;;;;;;0.10;0.10;;;19.00;99.90;;;;;;5233608;27;20647;-68
2024/04/12 13:52:23;;;;;;;0.30;0.30;;;18.90;99.90;;;;;;5240920;27;20276;-68
2024/04/12 13:54:51;;;;;;;0.33;0.30;;;18.80;99.90;;;;;;5241231;27;20277;-68
2024/04/12 13:57:17;;;;;;;0.40;0.20;;;18.70;99.90;;;;;;5240798;27;20292;-68
2024/04/12 13:59:44;;;;;;;0.40;0.20;;;18.60;99.90;;;;;;5226316;27;20235;-68
2024/04/12 14:02:10;;;;;;;0.50;0.40;;;18.60;99.90;;;;;;5241240;27;20253;-66
2024/04/12 14:04:38;;;;;;;0.57;0.30;;;18.50;99.90;;;;;;5227261;27;20301;-68
2024/04/12 14:07:04;;;;;;;0.20;0.20;;;18.50;99.90;;;;;;5241136;27;20273;-67
2024/04/12 14:09:30;;;;;;;1.90;1.00;;;18.50;99.90;;;;;;5240200;27;20253;-66
2024/04/12 14:11:56;;;;;;;3.20;1.57;;;18.40;99.90;;;;;;5240832;27;20927;-67
2024/04/12 14:14:23;;;;;;;2.23;1.30;;;18.50;99.90;;;;;;5240636;27;20321;-67
2024/04/12 14:16:51;;;;;;;0.50;0.43;;;18.50;99.90;;;;;;5240412;27;20366;-68
2024/04/12 14:19:20;;;;;;;1.47;0.33;;;18.50;99.90;;;;;;5240893;27;20710;-67
2024/04/12 14:21:51;;;;;;;0.80;0.50;;;18.40;99.90;;;;;;5240217;27;20242;-66